sensor_id;sensor_type;location;lat;lon;timestamp;P1;durP1;ratioP1;P2;durP2;ratioP2
10479;SDS011;12789;42.610;23.040;2023-03-13T01:05:58;33.30;;;18.40;;
10479;SDS011;12789;42.610;23.040;2023-03-13T01:19:44;16.10;;;9.30;;
10479;SDS011;12789;42.610;23.040;2023-03-13T01:22:18;14.23;;;9.20;;
10479;SDS011;12789;42.610;23.040;2023-03-13T01:27:28;17.07;;;9.50;;
10479;SDS011;12789;42.610;23.040;2023-03-13T01:48:02;15.60;;;9.53;;
10479;SDS011;12789;42.610;23.040;2023-03-13T01:56:07;22.33;;;12.53;;
10479;SDS011;12789;42.610;23.040;2023-03-13T01:58:38;22.43;;;11.67;;
10479;SDS011;12789;42.610;23.040;2023-03-13T02:16:48;28.00;;;17.17;;
10479;SDS011;12789;42.610;23.040;2023-03-13T02:19:21;24.27;;;13.70;;
10479;SDS011;12789;42.610;23.040;2023-03-13T02:44:09;12.67;;;7.93;;
10479;SDS011;12789;42.610;23.040;2023-03-13T08:36:13;5.40;;;4.43;;
10479;SDS011;12789;42.610;23.040;2023-03-13T08:38:50;8.77;;;4.23;;
10479;SDS011;12789;42.610;23.040;2023-03-13T10:31:02;5.53;;;3.20;;
10479;SDS011;12789;42.610;23.040;2023-03-13T10:33:29;3.50;;;3.20;;
10479;SDS011;12789;42.610;23.040;2023-03-13T10:35:58;3.83;;;2.60;;
10479;SDS011;12789;42.610;23.040;2023-03-13T10:38:25;2.87;;;2.63;;
10479;SDS011;12789;42.610;23.040;2023-03-13T10:40:55;2.95;;;2.63;;
10479;SDS011;12789;42.610;23.040;2023-03-13T10:43:22;3.80;;;2.95;;
10479;SDS011;12789;42.610;23.040;2023-03-13T10:45:50;3.85;;;2.90;;
10479;SDS011;12789;42.610;23.040;2023-03-13T10:48:19;5.32;;;3.03;;
10479;SDS011;12789;42.610;23.040;2023-03-13T10:50:46;3.28;;;2.80;;
10479;SDS011;12789;42.610;23.040;2023-03-13T10:53:23;3.13;;;2.70;;
10479;SDS011;12789;42.610;23.040;2023-03-13T10:55:52;3.10;;;2.80;;
10479;SDS011;12789;42.610;23.040;2023-03-13T10:58:22;2.47;;;2.20;;
10479;SDS011;12789;42.610;23.040;2023-03-13T11:00:49;2.50;;;2.30;;
10479;SDS011;12789;42.610;23.040;2023-03-13T11:03:16;2.40;;;2.30;;
10479;SDS011;12789;42.610;23.040;2023-03-13T11:05:52;2.65;;;2.40;;
10479;SDS011;12789;42.610;23.040;2023-03-13T11:08:21;2.17;;;2.05;;
10479;SDS011;12789;42.610;23.040;2023-03-13T11:10:57;2.45;;;2.25;;
10479;SDS011;12789;42.610;23.040;2023-03-13T11:18:59;4.10;;;2.30;;
10479;SDS011;12789;42.610;23.040;2023-03-13T11:21:29;2.42;;;2.22;;
10479;SDS011;12789;42.610;23.040;2023-03-13T11:24:01;2.90;;;2.30;;
10479;SDS011;12789;42.610;23.040;2023-03-13T11:26:31;2.42;;;2.10;;
10479;SDS011;12789;42.610;23.040;2023-03-13T11:29:02;2.35;;;2.15;;
10479;SDS011;12789;42.610;23.040;2023-03-13T11:31:31;2.92;;;2.50;;
10479;SDS011;12789;42.610;23.040;2023-03-13T11:34:02;3.20;;;2.25;;
10479;SDS011;12789;42.610;23.040;2023-03-13T11:36:32;5.47;;;2.72;;
10479;SDS011;12789;42.610;23.040;2023-03-13T11:39:02;3.10;;;2.90;;
10479;SDS011;12789;42.610;23.040;2023-03-13T11:41:43;2.35;;;2.15;;
10479;SDS011;12789;42.610;23.040;2023-03-13T11:44:17;2.38;;;1.95;;
10479;SDS011;12789;42.610;23.040;2023-03-13T11:46:48;2.95;;;2.20;;
10479;SDS011;12789;42.610;23.040;2023-03-13T11:49:20;2.75;;;2.50;;
10479;SDS011;12789;42.610;23.040;2023-03-13T11:51:55;4.93;;;2.28;;
10479;SDS011;12789;42.610;23.040;2023-03-13T11:54:31;3.03;;;2.30;;
10479;SDS011;12789;42.610;23.040;2023-03-13T11:57:04;2.65;;;2.45;;
10479;SDS011;12789;42.610;23.040;2023-03-13T11:59:33;2.25;;;2.10;;
10479;SDS011;12789;42.610;23.040;2023-03-13T12:02:03;3.70;;;2.22;;
10479;SDS011;12789;42.610;23.040;2023-03-13T12:04:33;2.55;;;2.38;;
10479;SDS011;12789;42.610;23.040;2023-03-13T12:07:02;2.67;;;2.47;;
10479;SDS011;12789;42.610;23.040;2023-03-13T12:09:34;2.70;;;2.42;;
10479;SDS011;12789;42.610;23.040;2023-03-13T12:12:03;2.38;;;2.17;;
10479;SDS011;12789;42.610;23.040;2023-03-13T12:14:35;3.15;;;2.33;;
10479;SDS011;12789;42.610;23.040;2023-03-13T12:17:03;2.20;;;2.05;;
10479;SDS011;12789;42.610;23.040;2023-03-13T12:19:40;2.60;;;2.35;;
10479;SDS011;12789;42.610;23.040;2023-03-13T12:22:15;5.60;;;2.60;;
10479;SDS011;12789;42.610;23.040;2023-03-13T12:24:45;3.63;;;2.67;;
10479;SDS011;12789;42.610;23.040;2023-03-13T12:27:18;2.60;;;2.40;;
10479;SDS011;12789;42.610;23.040;2023-03-13T12:29:47;2.88;;;2.50;;
10479;SDS011;12789;42.610;23.040;2023-03-13T12:32:18;2.67;;;2.05;;
10479;SDS011;12789;42.610;23.040;2023-03-13T12:34:50;5.75;;;2.50;;
10479;SDS011;12789;42.610;23.040;2023-03-13T12:37:24;2.00;;;1.90;;
10479;SDS011;12789;42.610;23.040;2023-03-13T12:39:54;3.53;;;2.05;;
10479;SDS011;12789;42.610;23.040;2023-03-13T12:42:27;2.08;;;1.80;;
10479;SDS011;12789;42.610;23.040;2023-03-13T12:44:58;2.60;;;2.05;;
10479;SDS011;12789;42.610;23.040;2023-03-13T12:47:29;2.97;;;1.95;;
10479;SDS011;12789;42.610;23.040;2023-03-13T12:50:04;2.40;;;2.20;;
10479;SDS011;12789;42.610;23.040;2023-03-13T12:52:44;10.95;;;9.90;;
10479;SDS011;12789;42.610;23.040;2023-03-13T12:55:20;2.47;;;1.80;;
10479;SDS011;12789;42.610;23.040;2023-03-13T12:57:57;4.85;;;4.43;;
10479;SDS011;12789;42.610;23.040;2023-03-13T13:00:27;7.90;;;7.10;;
10479;SDS011;12789;42.610;23.040;2023-03-13T13:03:01;2.92;;;2.10;;
10479;SDS011;12789;42.610;23.040;2023-03-13T13:05:28;2.83;;;2.47;;
10479;SDS011;12789;42.610;23.040;2023-03-13T13:07:56;4.55;;;2.45;;
10479;SDS011;12789;42.610;23.040;2023-03-13T13:10:23;6.32;;;3.65;;
10479;SDS011;12789;42.610;23.040;2023-03-13T13:15:38;2.95;;;2.10;;
10479;SDS011;12789;42.610;23.040;2023-03-13T13:18:14;7.22;;;3.70;;
10479;SDS011;12789;42.610;23.040;2023-03-13T13:20:42;3.47;;;2.58;;
10479;SDS011;12789;42.610;23.040;2023-03-13T13:28:45;2.55;;;2.35;;
10479;SDS011;12789;42.610;23.040;2023-03-13T13:33:53;2.25;;;2.05;;
10479;SDS011;12789;42.610;23.040;2023-03-13T13:36:27;4.13;;;2.20;;
10479;SDS011;12789;42.610;23.040;2023-03-13T13:38:54;3.95;;;2.40;;
10479;SDS011;12789;42.610;23.040;2023-03-13T13:41:22;7.95;;;3.65;;
10479;SDS011;12789;42.610;23.040;2023-03-13T13:44:13;5.65;;;3.80;;
10479;SDS011;12789;42.610;23.040;2023-03-13T13:46:42;3.38;;;2.40;;
10479;SDS011;12789;42.610;23.040;2023-03-13T13:49:12;3.00;;;1.80;;
10479;SDS011;12789;42.610;23.040;2023-03-13T13:51:40;5.10;;;1.88;;
10479;SDS011;12789;42.610;23.040;2023-03-13T13:54:29;4.90;;;2.50;;
10479;SDS011;12789;42.610;23.040;2023-03-13T13:56:56;4.07;;;2.75;;
10479;SDS011;12789;42.610;23.040;2023-03-13T13:59:32;7.50;;;4.07;;
10479;SDS011;12789;42.610;23.040;2023-03-13T14:02:18;3.60;;;1.98;;
10479;SDS011;12789;42.610;23.040;2023-03-13T14:04:50;1.60;;;1.50;;
10479;SDS011;12789;42.610;23.040;2023-03-13T14:07:18;2.17;;;1.08;;
10479;SDS011;12789;42.610;23.040;2023-03-13T14:09:51;7.32;;;1.58;;
10479;SDS011;12789;42.610;23.040;2023-03-13T14:12:27;3.20;;;1.52;;
10479;SDS011;12789;42.610;23.040;2023-03-13T14:15:09;1.50;;;1.40;;
10479;SDS011;12789;42.610;23.040;2023-03-13T14:17:38;1.55;;;1.45;;
10479;SDS011;12789;42.610;23.040;2023-03-13T14:20:14;9.55;;;2.10;;
10479;SDS011;12789;42.610;23.040;2023-03-13T14:22:44;1.88;;;1.67;;
10479;SDS011;12789;42.610;23.040;2023-03-13T14:25:11;2.88;;;1.50;;
10479;SDS011;12789;42.610;23.040;2023-03-13T14:27:41;1.85;;;1.38;;
10479;SDS011;12789;42.610;23.040;2023-03-13T14:30:10;10.00;;;4.72;;
10479;SDS011;12789;42.610;23.040;2023-03-13T14:32:37;8.68;;;4.57;;
10479;SDS011;12789;42.610;23.040;2023-03-13T14:35:04;6.00;;;2.88;;
10479;SDS011;12789;42.610;23.040;2023-03-13T14:37:32;4.55;;;1.60;;
10479;SDS011;12789;42.610;23.040;2023-03-13T14:40:04;1.95;;;1.67;;
10479;SDS011;12789;42.610;23.040;2023-03-13T14:42:36;6.57;;;1.60;;
10479;SDS011;12789;42.610;23.040;2023-03-13T14:45:12;3.55;;;1.20;;
10479;SDS011;12789;42.610;23.040;2023-03-13T14:47:39;2.28;;;1.38;;
10479;SDS011;12789;42.610;23.040;2023-03-13T14:50:08;3.70;;;2.00;;
10479;SDS011;12789;42.610;23.040;2023-03-13T14:52:37;2.30;;;1.13;;
10479;SDS011;12789;42.610;23.040;2023-03-13T14:55:24;1.83;;;1.27;;
10479;SDS011;12789;42.610;23.040;2023-03-13T14:57:54;1.08;;;1.08;;
10479;SDS011;12789;42.610;23.040;2023-03-13T15:00:28;2.22;;;1.73;;
10479;SDS011;12789;42.610;23.040;2023-03-13T15:05:36;1.52;;;1.30;;
10479;SDS011;12789;42.610;23.040;2023-03-13T15:08:09;2.15;;;1.70;;
10479;SDS011;12789;42.610;23.040;2023-03-13T15:10:37;3.03;;;2.00;;
10479;SDS011;12789;42.610;23.040;2023-03-13T15:13:12;12.82;;;5.30;;
10479;SDS011;12789;42.610;23.040;2023-03-13T15:15:40;8.20;;;6.40;;
10479;SDS011;12789;42.610;23.040;2023-03-13T15:18:10;17.67;;;9.15;;
10479;SDS011;12789;42.610;23.040;2023-03-13T15:20:40;3.92;;;3.10;;
10479;SDS011;12789;42.610;23.040;2023-03-13T15:23:08;13.40;;;6.20;;
10479;SDS011;12789;42.610;23.040;2023-03-13T15:25:36;26.35;;;17.65;;
10479;SDS011;12789;42.610;23.040;2023-03-13T15:28:05;12.43;;;9.30;;
10479;SDS011;12789;42.610;23.040;2023-03-13T15:30:35;22.45;;;9.70;;
10479;SDS011;12789;42.610;23.040;2023-03-13T15:33:03;11.32;;;8.15;;
10479;SDS011;12789;42.610;23.040;2023-03-13T15:35:30;8.63;;;3.65;;
10479;SDS011;12789;42.610;23.040;2023-03-13T15:37:57;20.95;;;7.70;;
10479;SDS011;12789;42.610;23.040;2023-03-13T15:40:24;14.88;;;6.15;;
10479;SDS011;12789;42.610;23.040;2023-03-13T15:42:51;18.88;;;9.00;;
10479;SDS011;12789;42.610;23.040;2023-03-13T15:45:18;33.92;;;20.33;;
10479;SDS011;12789;42.610;23.040;2023-03-13T15:47:45;15.38;;;8.95;;
10479;SDS011;12789;42.610;23.040;2023-03-13T15:50:15;21.33;;;8.38;;
10479;SDS011;12789;42.610;23.040;2023-03-13T15:52:43;19.73;;;6.07;;
10479;SDS011;12789;42.610;23.040;2023-03-13T15:55:10;22.75;;;12.63;;
10479;SDS011;12789;42.610;23.040;2023-03-13T15:57:37;17.67;;;10.65;;
10479;SDS011;12789;42.610;23.040;2023-03-13T16:00:17;10.70;;;5.20;;
10479;SDS011;12789;42.610;23.040;2023-03-13T16:02:44;13.02;;;5.63;;
10479;SDS011;12789;42.610;23.040;2023-03-13T16:05:11;6.70;;;4.78;;
10479;SDS011;12789;42.610;23.040;2023-03-13T16:07:39;6.85;;;4.90;;
10479;SDS011;12789;42.610;23.040;2023-03-13T16:10:06;10.07;;;6.00;;
10479;SDS011;12789;42.610;23.040;2023-03-13T16:12:39;21.02;;;11.63;;
10479;SDS011;12789;42.610;23.040;2023-03-13T16:15:06;37.35;;;22.23;;
10479;SDS011;12789;42.610;23.040;2023-03-13T16:17:33;34.25;;;20.67;;
10479;SDS011;12789;42.610;23.040;2023-03-13T16:19:59;28.77;;;18.08;;
10479;SDS011;12789;42.610;23.040;2023-03-13T16:22:26;30.92;;;16.25;;
10479;SDS011;12789;42.610;23.040;2023-03-13T16:24:54;22.30;;;14.13;;
10479;SDS011;12789;42.610;23.040;2023-03-13T16:27:20;18.15;;;11.05;;
10479;SDS011;12789;42.610;23.040;2023-03-13T16:29:49;12.52;;;9.02;;
10479;SDS011;12789;42.610;23.040;2023-03-13T16:32:16;9.15;;;6.15;;
10479;SDS011;12789;42.610;23.040;2023-03-13T16:34:48;8.75;;;5.60;;
10479;SDS011;12789;42.610;23.040;2023-03-13T16:37:15;12.27;;;6.05;;
10479;SDS011;12789;42.610;23.040;2023-03-13T16:39:42;18.70;;;9.20;;
10479;SDS011;12789;42.610;23.040;2023-03-13T16:42:11;16.80;;;6.53;;
10479;SDS011;12789;42.610;23.040;2023-03-13T16:44:38;22.33;;;8.93;;
10479;SDS011;12789;42.610;23.040;2023-03-13T16:48:17;32.92;;;19.25;;
10479;SDS011;12789;42.610;23.040;2023-03-13T16:50:37;30.98;;;18.33;;
10479;SDS011;12789;42.610;23.040;2023-03-13T16:53:15;38.70;;;19.47;;
10479;SDS011;12789;42.610;23.040;2023-03-13T16:55:42;34.37;;;20.13;;
10479;SDS011;12789;42.610;23.040;2023-03-13T16:58:10;42.37;;;22.03;;
10479;SDS011;12789;42.610;23.040;2023-03-13T17:00:39;57.27;;;30.03;;
10479;SDS011;12789;42.610;23.040;2023-03-13T17:03:13;62.57;;;32.73;;
10479;SDS011;12789;42.610;23.040;2023-03-13T17:05:41;50.13;;;25.37;;
10479;SDS011;12789;42.610;23.040;2023-03-13T17:08:16;48.77;;;23.93;;
10479;SDS011;12789;42.610;23.040;2023-03-13T17:10:45;128.77;;;60.90;;
10479;SDS011;12789;42.610;23.040;2023-03-13T17:13:20;113.40;;;54.07;;
10479;SDS011;12789;42.610;23.040;2023-03-13T17:15:49;75.20;;;33.43;;
10479;SDS011;12789;42.610;23.040;2023-03-13T17:18:30;72.30;;;35.13;;
10479;SDS011;12789;42.610;23.040;2023-03-13T17:20:57;77.90;;;36.97;;
10479;SDS011;12789;42.610;23.040;2023-03-13T17:23:27;116.63;;;53.27;;
10479;SDS011;12789;42.610;23.040;2023-03-13T17:25:57;112.63;;;51.33;;
10479;SDS011;12789;42.610;23.040;2023-03-13T17:34:05;167.10;;;71.67;;
10479;SDS011;12789;42.610;23.040;2023-03-13T17:46:58;87.77;;;40.80;;
